Time;durP1;ratioP1;P1;durP2;ratioP2;P2;SDS_P1;SDS_P2;PMS_P1;PMS_P2;Temp;Humidity;BMP_temperature;BMP_pressure;BME280_temperature;BME280_humidity;BME280_pressure;Samples;Min_cycle;Max_cycle;Signal;HPM_P1;HPM_P2
2023/03/29 07:23:30;;;;;;;5.90;3.83;;;;;;;-145.79;69.14;78248.53;5288742;27;20786;-78
2023/03/29 07:26:01;;;;;;;8.00;4.80;;;;;;;-145.79;68.88;78252.78;5278424;28;20021;-79
2023/03/29 07:28:33;;;;;;;5.80;4.68;;;;;;;-145.79;68.90;78242.19;5279699;28;20029;-80
2023/03/29 07:31:09;;;;;;;9.40;4.50;;;;;;;-145.79;69.71;78233.69;5274026;28;20430;-77
2023/03/29 07:33:43;;;;;;;11.10;5.13;;;;;;;-145.79;69.14;78231.56;5258339;28;20029;-78
2023/03/29 07:36:15;;;;;;;4.97;4.20;;;;;;;-145.79;69.42;78225.22;5275599;28;20066;-77
2023/03/29 07:38:47;;;;;;;6.57;4.28;;;;;;;-145.79;68.98;78227.34;5278371;28;20078;-77
2023/03/29 07:41:18;;;;;;;5.70;3.90;;;;;;;-145.79;69.12;78229.47;5278509;28;20044;-77
2023/03/29 07:43:53;;;;;;;6.80;4.40;;;;;;;-145.79;68.82;78225.22;5278807;28;20021;-77
2023/03/29 07:46:24;;;;;;;5.57;4.00;;;;;;;-145.79;68.79;78229.47;5277894;28;20021;-76
2023/03/29 07:48:56;;;;;;;7.22;4.50;;;;;;;-145.79;69.08;78227.34;5278990;28;20341;-77
2023/03/29 07:51:27;;;;;;;6.90;4.15;;;;;;;-145.79;69.19;78225.22;5278424;28;20021;-76
2023/03/29 07:53:58;;;;;;;7.18;3.88;;;;;;;-145.79;69.66;78216.72;5277667;28;20051;-76
2023/03/29 07:56:29;;;;;;;5.30;4.70;;;;;;;-145.79;70.25;78210.38;5278787;28;20116;-76
2023/03/29 07:59:01;;;;;;;11.73;5.15;;;;;;;-145.79;71.19;78212.50;5279100;28;20375;-75
2023/03/29 08:01:32;;;;;;;7.18;4.93;;;;;;;-145.79;72.16;78216.72;5277782;28;20029;-76
2023/03/29 08:04:04;;;;;;;8.52;5.22;;;;;;;-145.79;73.08;78212.50;5278783;28;20104;-76
2023/03/29 08:06:36;;;;;;;7.03;4.80;;;;;;;-145.79;73.44;78208.25;5278046;28;20379;-76
2023/03/29 08:09:07;;;;;;;6.85;4.88;;;;;;;-145.79;74.23;78204.00;5276062;28;20041;-75
2023/03/29 08:11:39;;;;;;;8.10;4.70;;;;;;;-145.79;75.21;78199.78;5266465;28;20028;-75
2023/03/29 08:14:10;;;;;;;8.73;5.28;;;;;;;-145.79;75.89;78201.91;5274681;28;20033;-75
2023/03/29 08:16:41;;;;;;;6.43;5.40;;;;;;;-145.79;76.37;78201.91;5277806;28;20025;-76
2023/03/29 08:19:22;;;;;;;8.43;5.07;;;;;;;-145.79;77.22;78199.78;5278182;28;20037;-76
2023/03/29 08:21:53;;;;;;;6.18;4.72;;;;;;;-145.79;77.21;78195.53;5277424;28;20041;-75
2023/03/29 08:24:25;;;;;;;8.68;6.07;;;;;;;-145.79;77.62;78191.28;5278263;28;20040;-74
2023/03/29 08:26:59;;;;;;;9.68;5.32;;;;;;;-145.79;77.50;78182.81;5279371;28;20031;-75
2023/03/29 08:29:31;;;;;;;10.68;5.15;;;;;;;-145.79;78.17;78180.69;5276662;28;20111;-74
2023/03/29 08:32:03;;;;;;;8.82;5.35;;;;;;;-145.79;77.97;78167.97;5276977;28;20099;-75
2023/03/29 08:34:37;;;;;;;10.13;5.93;;;;;;;-145.79;77.86;78170.09;5264092;28;20029;-75
2023/03/29 08:37:09;;;;;;;7.85;5.00;;;;;;;-145.79;77.48;78161.63;5263768;28;20478;-76
2023/03/29 08:39:41;;;;;;;11.52;6.03;;;;;;;-145.79;77.89;78161.63;5264357;28;20044;-76
2023/03/29 08:42:25;;;;;;;10.27;5.75;;;;;;;-145.79;78.37;78157.38;5262899;28;20104;-76
2023/03/29 08:45:06;;;;;;;9.75;6.00;;;;;;;-145.79;79.15;78159.50;5243299;28;20116;-75
2023/03/29 08:47:49;;;;;;;8.68;5.88;;;;;;;-145.79;79.13;78155.25;5243340;28;20049;-75
2023/03/29 08:50:25;;;;;;;12.73;5.75;;;;;;;-145.79;79.28;78153.13;5242417;28;20040;-75
2023/03/29 08:53:20;;;;;;;8.32;5.72;;;;;;;-145.79;79.68;78144.66;5245194;28;20059;-75
2023/03/29 08:55:56;;;;;;;7.70;6.13;;;;;;;-145.79;79.41;78140.41;5261704;28;20025;-75
2023/03/29 08:58:31;;;;;;;10.07;6.15;;;;;;;-145.79;80.40;78131.94;5261363;28;20029;-74
2023/03/29 09:01:04;;;;;;;;;;;;;;;-145.79;79.63;78114.97;5259397;28;20029;-75
2023/03/29 09:03:44;;;;;;;11.25;6.72;;;;;;;-145.79;79.87;78134.06;5246352;28;19924;-81
2023/03/29 09:06:19;;;;;;;8.38;6.80;;;;;;;-145.79;80.14;78129.81;5259858;28;20029;-79
2023/03/29 09:08:52;;;;;;;9.82;6.88;;;;;;;-145.79;79.66;78123.44;5267139;28;20055;-79
2023/03/29 09:11:40;;;;;;;10.35;5.45;;;;;;;-145.79;80.14;78119.22;5263537;28;20036;-80
2023/03/29 09:14:36;;;;;;;8.77;5.97;;;;;;;-145.79;79.79;78114.97;5264577;28;20033;-81
2023/03/29 09:17:26;;;;;;;8.75;6.40;;;;;;;-145.79;79.45;78112.84;5263116;28;20032;-77
2023/03/29 09:20:13;;;;;;;8.15;5.43;;;;;;;-145.79;80.11;78114.97;5265119;28;20036;-80
2023/03/29 09:23:02;;;;;;;8.00;5.82;;;;;;;-145.79;80.31;78108.63;5263366;28;20053;-73
2023/03/29 09:25:57;;;;;;;10.68;6.25;;;;;;;-145.79;80.03;78098.00;5261513;28;20478;-75
2023/03/29 09:28:37;;;;;;;13.70;5.95;;;;;;;-145.79;80.35;78093.78;5263143;28;20038;-75
2023/03/29 09:31:19;;;;;;;11.88;5.47;;;;;;;-145.79;80.48;78078.94;5262265;28;20028;-75
2023/03/29 09:34:13;;;;;;;7.30;5.60;;;;;;;-145.79;79.79;78081.06;5262844;28;20104;-77
2023/03/29 09:36:51;;;;;;;8.40;6.55;;;;;;;-145.79;80.49;78074.69;5262177;28;20479;-74
2023/03/29 09:39:26;;;;;;;8.20;5.68;;;;;;;-145.79;81.16;78072.56;5260310;28;20502;-76
2023/03/29 09:42:07;;;;;;;9.75;6.18;;;;;;;-145.79;82.36;78076.81;5263957;28;20475;-75
2023/03/29 09:44:48;;;;;;;7.20;5.70;;;;;;;-145.79;82.85;78083.19;5260290;28;20017;-75
2023/03/29 09:47:25;;;;;;;8.73;5.25;;;;;;;-145.79;84.02;78066.22;5261856;28;20039;-73
2023/03/29 09:50:09;;;;;;;10.48;5.80;;;;;;;-145.79;83.99;78068.34;5265439;28;20025;-75
2023/03/29 09:52:41;;;;;;;7.05;5.78;;;;;;;-145.79;84.67;78059.84;5261741;28;20484;-79
2023/03/29 09:55:15;;;;;;;9.23;5.95;;;;;;;-145.79;85.12;78076.81;5273181;28;20028;-77
2023/03/29 09:57:46;;;;;;;6.93;5.45;;;;;;;-145.79;85.88;78064.09;5264448;28;20021;-79
2023/03/29 10:00:18;;;;;;;11.73;6.82;;;;;;;-145.79;86.36;78078.94;5262362;28;20017;-80
2023/03/29 10:02:56;;;;;;;7.82;6.65;;;;;;;-145.79;87.46;78083.19;5263095;28;20057;-80
2023/03/29 10:05:31;;;;;;;9.52;6.65;;;;;;;-145.79;87.17;78089.53;5263501;28;20028;-82
2023/03/29 10:08:17;;;;;;;7.75;6.80;;;;;;;-145.79;86.93;78076.81;5262105;28;20022;-79
2023/03/29 10:10:48;;;;;;;7.85;6.45;;;;;;;-145.79;86.79;78076.81;5262629;28;20021;-74
2023/03/29 10:13:29;;;;;;;10.25;6.82;;;;;;;-145.79;87.97;78074.69;5261479;28;20033;-75
2023/03/29 10:16:00;;;;;;;9.95;6.25;;;;;;;-145.79;88.06;78057.72;5261857;28;20400;-74
2023/03/29 10:18:42;;;;;;;10.02;6.10;;;;;;;-145.79;87.73;78051.38;5261408;28;20037;-77
2023/03/29 10:21:16;;;;;;;7.32;5.55;;;;;;;-145.79;87.66;78057.72;5261181;28;20048;-78
2023/03/29 10:23:55;;;;;;;8.48;6.10;;;;;;;-145.79;86.89;78047.13;5246310;28;20029;-76
2023/03/29 10:26:36;;;;;;;8.45;6.28;;;;;;;-145.79;87.18;78038.66;5261880;28;20055;-77
2023/03/29 10:29:09;;;;;;;12.32;6.45;;;;;;;-145.79;87.57;78032.28;5261153;28;20029;-80
2023/03/29 10:31:41;;;;;;;8.98;6.38;;;;;;;-145.79;87.91;78019.56;5246243;28;20037;-83
2023/03/29 10:34:15;;;;;;;10.32;6.57;;;;;;;-145.79;87.76;78006.84;5247791;28;20033;-78
2023/03/29 10:37:07;;;;;;;9.90;6.63;;;;;;;-145.79;87.90;77987.78;5261573;28;20056;-77
2023/03/29 10:39:38;;;;;;;9.75;6.30;;;;;;;-145.79;87.39;77979.28;5262158;28;20025;-78
2023/03/29 10:42:14;;;;;;;9.25;6.95;;;;;;;-145.79;86.78;77968.69;5260457;28;20059;-77
2023/03/29 10:44:55;;;;;;;9.43;6.07;;;;;;;-145.79;85.17;77966.56;5260994;28;20072;-79
2023/03/29 10:47:33;;;;;;;6.72;5.93;;;;;;;-145.79;84.78;77949.63;5261052;28;20033;-77
2023/03/29 10:50:05;;;;;;;8.25;5.80;;;;;;;-145.79;84.69;77932.66;5261287;28;20036;-77
2023/03/29 10:52:38;;;;;;;10.82;6.18;;;;;;;-145.79;83.78;77915.69;5262975;28;20091;-78
2023/03/29 10:55:13;;;;;;;9.07;5.60;;;;;;;-145.79;83.46;77894.50;5263648;28;20031;-78
2023/03/29 10:57:57;;;;;;;11.43;6.20;;;;;;;-145.79;82.99;77875.41;5261659;28;20373;-77
2023/03/29 11:00:55;;;;;;;8.07;6.40;;;;;;;-145.79;82.72;77843.63;5261740;28;20052;-78
2023/03/29 11:03:49;;;;;;;17.88;8.25;;;;;;;-145.79;81.04;77837.25;5252788;28;20067;-71
2023/03/29 11:06:42;;;;;;;7.53;6.30;;;;;;;-145.79;81.55;77809.69;5261500;28;20369;-76
2023/03/29 11:09:33;;;;;;;6.97;6.22;;;;;;;-145.79;80.17;77801.22;5260660;28;20021;-72
2023/03/29 11:12:17;;;;;;;9.07;6.15;;;;;;;-145.79;78.88;77807.59;5230152;28;20404;-72
2023/03/29 11:15:01;;;;;;;8.02;5.35;;;;;;;-145.79;78.41;77792.75;5260897;28;20094;-76
2023/03/29 11:17:54;;;;;;;7.00;5.80;;;;;;;-145.79;78.66;77782.16;5259018;28;20026;-73
2023/03/29 11:20:31;;;;;;;10.07;6.30;;;;;;;-145.79;77.63;77767.31;5260320;28;20383;-73
2023/03/29 11:23:29;;;;;;;8.18;5.43;;;;;;;-145.79;77.17;77760.94;5260083;28;20056;-73
2023/03/29 11:26:23;;;;;;;8.52;6.75;;;;;;;-145.79;76.98;77758.81;5260926;28;20052;-73
2023/03/29 11:29:04;;;;;;;11.18;10.02;;;;;;;-145.79;77.04;77733.38;5260257;28;20123;-73
2023/03/29 11:32:06;;;;;;;8.77;5.70;;;;;;;-145.79;76.14;77729.16;5259782;28;20440;-74
2023/03/29 11:34:58;;;;;;;8.57;5.45;;;;;;;-145.79;75.89;77731.28;5260738;28;20076;-74
2023/03/29 11:37:49;;;;;;;6.80;5.32;;;;;;;-145.79;76.11;77727.03;5259728;28;20453;-74
2023/03/29 11:40:38;;;;;;;8.52;5.60;;;;;;;-145.79;75.86;77712.19;5260969;28;20499;-73
2023/03/29 11:43:19;;;;;;;6.35;5.75;;;;;;;-145.79;75.63;77703.72;5260786;28;20029;-71
2023/03/29 11:45:58;;;;;;;8.13;5.85;;;;;;;-145.79;74.81;77684.63;5259401;28;20090;-72
2023/03/29 11:48:35;;;;;;;5.60;5.10;;;;;;;-145.79;74.73;77674.03;5260470;28;20028;-71
2023/03/29 11:51:18;;;;;;;10.40;9.32;;;;;;;-145.79;74.63;77650.72;5260481;28;20029;-71
2023/03/29 11:53:55;;;;;;;7.00;5.38;;;;;;;-145.79;73.92;77640.13;5260748;28;20029;-70
2023/03/29 11:56:40;;;;;;;8.45;5.40;;;;;;;-145.79;73.51;77629.53;5260518;28;20028;-71
2023/03/29 11:59:17;;;;;;;5.38;4.88;;;;;;;-145.79;72.43;77623.16;5260120;28;20052;-72
2023/03/29 12:01:58;;;;;;;6.75;5.03;;;;;;;-145.79;72.08;77610.44;5258944;28;20029;-72
2023/03/29 12:04:40;;;;;;;6.55;4.97;;;;;;;-145.79;71.74;77606.19;5259698;28;20071;-74
2023/03/29 12:07:17;;;;;;;7.13;5.20;;;;;;;-145.79;71.09;77616.81;5259428;28;20112;-73
2023/03/29 12:09:58;;;;;;;7.28;5.05;;;;;;;-145.79;72.08;77614.69;5260418;28;20025;-72
2023/03/29 12:12:55;;;;;;;7.13;4.72;;;;;;;-145.79;71.45;77614.69;5280153;28;20052;-73
2023/03/29 12:15:31;;;;;;;6.60;4.82;;;;;;;-145.79;70.68;77621.03;5267241;28;20355;-73
2023/03/29 12:18:18;;;;;;;7.68;5.22;;;;;;;-145.79;70.91;77614.69;5278366;28;20477;-73
2023/03/29 12:21:00;;;;;;;5.63;4.63;;;;;;;-145.79;70.63;77599.84;5267660;28;20021;-75
2023/03/29 12:23:32;;;;;;;10.05;8.40;;;;;;;-145.79;70.44;77601.97;5274657;28;20028;-75
2023/03/29 12:26:16;;;;;;;9.65;5.32;;;;;;;-145.79;69.77;77597.72;5272951;28;20474;-75
2023/03/29 12:29:07;;;;;;;7.03;5.18;;;;;;;-145.79;70.20;77589.25;5266535;28;20490;-75
2023/03/29 12:31:45;;;;;;;8.35;4.82;;;;;;;-145.79;70.30;77576.53;5270442;28;20028;-76
2023/03/29 12:34:50;;;;;;;6.78;5.35;;;;;;;-145.79;70.06;77580.75;5263319;28;20464;-75
2023/03/29 12:37:45;;;;;;;6.13;4.80;;;;;;;-145.79;69.98;77574.41;5263010;28;20134;-74
2023/03/29 12:40:19;;;;;;;6.90;4.93;;;;;;;-145.79;69.73;77572.28;5262449;28;20736;-74
2023/03/29 12:42:53;;;;;;;7.78;4.97;;;;;;;-145.79;69.58;77561.69;5262209;28;20064;-74
2023/03/29 12:45:37;;;;;;;5.20;4.00;;;;;;;-145.79;69.18;77542.59;5262994;28;20061;-73
2023/03/29 12:48:18;;;;;;;4.90;4.15;;;;;;;-145.79;68.19;77536.25;5262255;28;20071;-73
2023/03/29 12:51:17;;;;;;;6.60;3.95;;;;;;;-145.79;68.71;77527.78;5263831;28;20028;-74
2023/03/29 12:53:52;;;;;;;5.03;3.78;;;;;;;-145.79;68.47;77517.16;5260531;28;20028;-75
2023/03/29 12:56:37;;;;;;;5.20;3.60;;;;;;;-145.79;68.49;77491.75;5270668;28;20464;-74
2023/03/29 12:59:08;;;;;;;5.97;4.50;;;;;;;-145.79;68.05;77474.78;5264440;28;20387;-72
2023/03/29 13:01:56;;;;;;;4.20;3.50;;;;;;;-145.79;67.05;77464.19;5274768;28;20036;-74
2023/03/29 13:04:55;;;;;;;4.20;3.80;;;;;;;-145.79;66.61;77466.31;5263529;28;20037;-74
2023/03/29 13:07:31;;;;;;;5.50;3.72;;;;;;;-145.79;66.31;77447.22;5262139;28;20091;-75
2023/03/29 13:10:29;;;;;;;4.60;3.90;;;;;;;-145.79;66.47;77440.88;5273261;28;20030;-75
2023/03/29 13:13:15;;;;;;;6.53;3.65;;;;;;;-145.79;66.63;77436.63;5213352;28;20727;-76
2023/03/29 13:15:46;;;;;;;;;;;;;;;-145.79;66.48;77432.38;5255433;28;20107;-77
2023/03/29 13:18:35;;;;;;;4.30;3.10;;;;;;;-145.79;65.87;77438.75;5262318;28;20360;-75
2023/03/29 13:21:16;;;;;;;4.32;3.90;;;;;;;-145.79;66.17;77436.63;5262597;28;20040;-75
2023/03/29 13:24:15;;;;;;;5.93;3.30;;;;;;;-145.79;66.31;77434.50;5262374;28;20029;-76
2023/03/29 13:26:53;;;;;;;7.03;3.65;;;;;;;-145.79;66.50;77432.38;5262784;28;20033;-75
2023/03/29 13:29:46;;;;;;;5.55;3.65;;;;;;;-145.79;66.69;77432.38;5261775;28;20091;-77
2023/03/29 13:32:29;;;;;;;3.65;3.30;;;;;;;-145.79;66.27;77430.25;5262187;28;20033;-74
2023/03/29 13:35:12;;;;;;;4.85;3.30;;;;;;;-145.79;66.58;77421.78;5262785;28;20037;-80
2023/03/29 13:38:16;;;;;;;8.73;3.30;;;;;;;-145.79;66.34;77417.53;5261756;28;20045;-75
2023/03/29 13:41:28;;;;;;;4.60;3.70;;;;;;;-145.79;66.50;77400.59;5249336;28;20116;-76
2023/03/29 13:44:00;;;;;;;7.25;3.88;;;;;;;-145.79;66.01;77411.19;5241269;28;20037;-77
2023/03/29 13:46:41;;;;;;;4.40;4.00;;;;;;;-145.79;66.39;77394.22;5242651;28;20411;-73
2023/03/29 13:49:19;;;;;;;4.88;3.30;;;;;;;-145.79;66.09;77390.00;5253189;28;20029;-75
2023/03/29 13:52:03;;;;;;;6.72;3.58;;;;;;;-145.79;66.23;77381.50;5261667;28;20024;-73
2023/03/29 13:54:55;;;;;;;5.72;3.67;;;;;;;-145.79;66.10;77368.78;5261154;28;20040;-79
2023/03/29 13:57:36;;;;;;;5.25;3.70;;;;;;;-145.79;66.05;77360.31;5262063;28;20028;-77
2023/03/29 14:00:19;;;;;;;7.30;3.55;;;;;;;-145.79;65.05;77360.31;5261521;28;20025;-76
2023/03/29 14:03:04;;;;;;;8.75;5.50;;;;;;;-145.79;65.34;77356.06;5262466;28;20037;-74
2023/03/29 14:05:42;;;;;;;3.67;3.17;;;;;;;-145.79;65.28;77364.56;5261243;28;20025;-74
2023/03/29 14:08:38;;;;;;;8.40;5.50;;;;;;;-145.79;66.11;77360.31;5261683;28;20049;-75
2023/03/29 14:11:27;;;;;;;5.97;3.50;;;;;;;-145.79;65.68;77351.84;5253469;28;20037;-75
2023/03/29 14:14:03;;;;;;;4.78;3.35;;;;;;;-145.79;65.62;77356.06;5240302;28;20121;-75
2023/03/29 14:16:37;;;;;;;4.80;3.45;;;;;;;-145.79;65.57;77347.59;5241290;28;20017;-77
2023/03/29 14:19:34;;;;;;;5.15;3.85;;;;;;;-145.79;65.33;77341.25;5240394;28;20499;-75
2023/03/29 14:22:14;;;;;;;4.88;3.35;;;;;;;-145.79;65.77;77341.25;5258391;28;20049;-76
2023/03/29 14:24:50;;;;;;;6.20;4.03;;;;;;;-145.79;65.67;77337.00;5241330;28;20489;-77
2023/03/29 14:27:21;;;;;;;5.25;3.20;;;;;;;-145.79;65.80;77339.13;5242897;28;20071;-77
2023/03/29 14:29:53;;;;;;;6.20;3.78;;;;;;;-145.79;65.69;77334.88;5261057;28;20033;-77
2023/03/29 14:32:30;;;;;;;5.13;3.55;;;;;;;-145.79;65.38;77326.41;5260025;28;20086;-77
2023/03/29 14:35:01;;;;;;;4.78;3.25;;;;;;;-145.79;65.84;77326.41;5262027;28;20028;-76
2023/03/29 14:37:33;;;;;;;4.72;3.47;;;;;;;-145.79;65.59;77326.41;5261495;28;20103;-76
2023/03/29 14:40:10;;;;;;;7.10;4.43;;;;;;;-145.79;66.11;77317.94;5260860;28;20480;-79
2023/03/29 14:42:42;;;;;;;4.25;3.40;;;;;;;-145.79;66.15;77307.31;5261939;28;20033;-77
2023/03/29 14:45:16;;;;;;;5.88;3.63;;;;;;;-145.79;66.15;77292.50;5266244;28;20123;-78
2023/03/29 14:47:48;;;;;;;4.97;3.35;;;;;;;-145.79;66.20;77292.50;5267894;28;20538;-76
2023/03/29 14:50:26;;;;;;;5.38;3.20;;;;;;;-145.79;66.03;77279.78;5262076;28;20064;-79
2023/03/29 14:52:58;;;;;;;4.93;3.25;;;;;;;-145.79;65.91;77273.41;5261747;28;20071;-77
2023/03/29 14:55:31;;;;;;;9.45;3.75;;;;;;;-145.79;66.12;77258.56;5260852;28;20464;-78
2023/03/29 14:58:03;;;;;;;5.47;3.15;;;;;;;-145.79;66.02;77235.25;5261048;28;20115;-78
2023/03/29 15:00:43;;;;;;;3.70;2.60;;;;;;;-145.79;65.81;77235.25;5261594;28;20068;-77
2023/03/29 15:03:18;;;;;;;3.42;2.17;;;;;;;-145.79;65.93;77228.91;5260743;28;20083;-77
2023/03/29 15:05:53;;;;;;;2.63;2.10;;;;;;;-145.79;65.58;77224.66;5261547;28;20032;-78
2023/03/29 15:08:33;;;;;;;3.67;2.28;;;;;;;-145.79;65.82;77207.72;5260959;28;20095;-78
2023/03/29 15:11:18;;;;;;;4.15;2.25;;;;;;;-145.79;66.04;77207.72;5265980;28;20545;-78
2023/03/29 15:13:54;;;;;;;3.70;2.00;;;;;;;-145.79;65.77;77199.22;5261560;28;20025;-78
2023/03/29 15:16:26;;;;;;;6.03;2.00;;;;;;;-145.79;65.66;77203.47;5260129;28;20047;-79
2023/03/29 15:19:01;;;;;;;4.38;2.28;;;;;;;-145.79;65.84;77205.59;5261817;28;20029;-77
2023/03/29 15:21:34;;;;;;;3.67;2.30;;;;;;;-145.79;66.41;77211.94;5261647;28;20048;-83
2023/03/29 15:24:28;;;;;;;3.17;1.83;;;;;;;-145.79;66.59;77207.72;5260936;28;20380;-79
2023/03/29 15:27:13;;;;;;;3.90;2.00;;;;;;;-145.79;66.69;77211.94;5247094;28;20021;-81
2023/03/29 15:29:46;;;;;;;4.20;2.35;;;;;;;-145.79;67.05;77205.59;5260738;28;20059;-80
2023/03/29 15:32:23;;;;;;;2.45;2.05;;;;;;;-145.79;67.27;77199.22;5247712;28;20025;-80
2023/03/29 15:35:04;;;;;;;3.97;2.20;;;;;;;-145.79;67.58;77211.94;5263377;28;20108;-81
2023/03/29 15:37:36;;;;;;;4.03;2.67;;;;;;;-145.79;67.71;77205.59;5262327;28;20029;-82
2023/03/29 15:40:14;;;;;;;3.00;1.70;;;;;;;-145.79;67.87;77211.94;5261531;28;20040;-80
2023/03/29 15:42:45;;;;;;;2.80;2.15;;;;;;;-145.79;68.12;77218.31;5261529;28;20033;-80
2023/03/29 15:45:17;;;;;;;4.35;2.10;;;;;;;-145.79;68.24;77201.34;5265055;28;20083;-79
2023/03/29 15:47:49;;;;;;;3.85;2.30;;;;;;;-145.79;68.55;77199.22;5265464;28;20119;-80
2023/03/29 15:50:26;;;;;;;2.67;1.90;;;;;;;-145.79;68.12;77197.09;5264995;28;20115;-79
2023/03/29 15:52:58;;;;;;;5.80;2.50;;;;;;;-145.79;68.79;77190.75;5264612;28;20037;-80
2023/03/29 15:55:31;;;;;;;2.60;1.75;;;;;;;-145.79;69.00;77186.50;5268236;28;20021;-83
2023/03/29 15:58:02;;;;;;;5.13;3.45;;;;;;;-145.79;69.28;77180.16;5267626;28;20044;-81
2023/03/29 16:00:34;;;;;;;4.72;2.40;;;;;;;-145.79;69.09;77180.16;5270574;28;20370;-84
2023/03/29 16:03:13;;;;;;;3.95;2.05;;;;;;;-145.79;69.20;77182.28;5269069;28;20071;-83
2023/03/29 16:05:45;;;;;;;3.55;2.33;;;;;;;-145.79;69.85;77178.03;5263566;28;20107;-79
2023/03/29 16:08:19;;;;;;;4.72;2.80;;;;;;;-145.79;69.96;77165.31;5264187;28;20108;-76
2023/03/29 16:10:53;;;;;;;4.65;2.20;;;;;;;-145.79;70.27;77163.19;5265003;28;20029;-76
2023/03/29 16:13:24;;;;;;;3.97;2.17;;;;;;;-145.79;70.49;77152.59;5263338;28;20037;-78
2023/03/29 16:15:56;;;;;;;3.83;2.50;;;;;;;-145.79;70.78;77152.59;5264368;28;20185;-76
2023/03/29 16:18:27;;;;;;;3.58;2.63;;;;;;;-145.79;71.11;77163.19;5263517;28;20032;-74
2023/03/29 16:20:59;;;;;;;4.38;2.60;;;;;;;-145.79;71.38;77161.06;5264241;28;20052;-77
2023/03/29 16:23:30;;;;;;;3.53;2.45;;;;;;;-145.79;71.89;77152.59;5264405;28;20083;-76
2023/03/29 16:26:02;;;;;;;3.38;2.33;;;;;;;-145.79;72.34;77146.25;5263431;28;20033;-78
2023/03/29 16:28:34;;;;;;;4.00;2.03;;;;;;;-145.79;72.66;77150.47;5264335;28;20029;-75
2023/03/29 16:31:05;;;;;;;3.33;2.10;;;;;;;-145.79;73.24;77144.13;5262724;28;20021;-76
2023/03/29 16:33:37;;;;;;;4.28;2.40;;;;;;;-145.79;74.17;77142.00;5263716;28;20025;-76
2023/03/29 16:36:09;;;;;;;2.50;2.20;;;;;;;-145.79;74.14;77144.13;5264169;28;20117;-76
2023/03/29 16:38:40;;;;;;;5.07;2.35;;;;;;;-145.79;74.99;77131.41;5262783;28;20036;-76
2023/03/29 16:41:16;;;;;;;2.97;2.40;;;;;;;-145.79;75.41;77131.41;5263368;28;20032;-76
2023/03/29 16:43:47;;;;;;;;;;;;;;;-145.79;75.22;77139.88;5264572;28;20147;-75
2023/03/29 16:46:19;;;;;;;4.03;2.97;;;;;;;-145.79;75.92;77139.88;5263898;28;20011;-76
2023/03/29 16:48:52;;;;;;;7.03;3.00;;;;;;;-145.79;76.24;77144.13;5263224;28;20032;-76
2023/03/29 16:51:24;;;;;;;6.10;3.45;;;;;;;-145.79;76.65;77142.00;5263706;28;20079;-77
2023/03/29 16:54:01;;;;;;;3.90;2.22;;;;;;;-145.79;76.87;77144.13;5262792;28;20850;-77
